CPJ2 weather

Alliston Heliport
Alliston, Ontario, Canada

Public forecast

Using degrees Celsius for public forecast. Weather courtesy of forecast.io.

Closest aviation weather report (METAR) to Alliston Heliport

Closest report is CFB Borden, 9.2 nm (17.0 km) NNW. Retrieved 2019/10/22 17:00 UTC (32 minutes ago):

CYBN 221700Z AUTO 20010G18KT 9SM BKN032 14/11 A2962 RMK SLP032

Closest aviation forecast (TAF) to Alliston Heliport

Closest forecast is CFB Borden, 9.2 nm (17.0 km) NNW. Retrieved 2019/10/22 12:33 UTC (5 hours ago):

TAF TAF CYBN 221130Z 2212/2224 16010G20KT 4SM -RA BR OVC006 BECMG 2212/2214 P6SM NSW OVC030 FM221400 20012G22KT P6SM BKN015 OVC040 TEMPO 2214/2218 P6SM -SHRA FM221800 20010G20KT P6SM BKN040 TEMPO 2218/2220 P6SM -SHRA RMK FCST BASED ON AUTO OBS NXT FCST BY 221800Z